createdAt,value
2019-01-30T00:05:15.739Z,94.805908
2019-01-30T00:10:38.453Z,94.555664
2019-01-30T00:16:01.308Z,94.555664
2019-01-30T00:21:24.576Z,94.555664
2019-01-30T00:26:47.317Z,94.488525
2019-01-30T00:32:10.128Z,94.702148
2019-01-30T00:37:42.869Z,94.073486
2019-01-30T00:43:05.861Z,93.505859
2019-01-30T00:48:28.783Z,93.023682
2019-01-30T00:53:51.474Z,92.248535
2019-01-30T00:59:15.025Z,91.516113
2019-01-30T01:04:38.008Z,92.041016
2019-01-30T01:10:00.829Z,92.08374
2019-01-30T01:15:23.554Z,91.97998
2019-01-30T01:20:47.230Z,91.308594
2019-01-30T01:26:10.168Z,91.455078
2019-01-30T01:31:32.862Z,90.991211
2019-01-30T01:36:55.895Z,90.258789
2019-01-30T01:42:18.808Z,90.155029
2019-01-30T01:47:51.021Z,89.276123
2019-01-30T01:53:13.967Z,90.155029
2019-01-30T01:58:36.764Z,90.258789
2019-01-30T02:03:59.526Z,90.008545
2019-01-30T02:09:23.199Z,89.697266
2019-01-30T02:14:46.092Z,90.112305
2019-01-30T02:20:08.669Z,90.637207
2019-01-30T02:25:31.438Z,90.887451
2019-01-30T02:30:54.184Z,90.740967
2019-01-30T02:36:17.012Z,90.991211
2019-01-30T02:41:39.752Z,91.162109
2019-01-30T02:47:02.615Z,90.991211
2019-01-30T02:52:25.448Z,90.008545
2019-01-30T02:57:57.977Z,90.112305
2019-01-30T03:03:21.129Z,90.008545
2019-01-30T03:08:43.830Z,90.216064
2019-01-30T03:14:06.514Z,90.008545
2019-01-30T03:19:30.178Z,89.276123
2019-01-30T03:25:01.901Z,89.068604
2019-01-30T03:30:24.973Z,88.293457
2019-01-30T03:35:48.419Z,88.336182
2019-01-30T03:41:11.326Z,88.232422
2019-01-30T03:46:34.020Z,88.439941
2019-01-30T03:51:56.751Z,88.232422
2019-01-30T03:57:19.809Z,88.018799
2019-01-30T04:02:43.687Z,87.915039
2019-01-30T04:08:06.381Z,87.042236
2019-01-30T04:13:29.261Z,86.621094
2019-01-30T04:18:52.246Z,86.724854
2019-01-30T04:24:15.015Z,86.199951
2019-01-30T04:29:37.925Z,86.621094
2019-01-30T04:35:00.529Z,87.078857
2019-01-30T04:40:23.217Z,86.975098
2019-01-30T04:45:45.918Z,86.621094
2019-01-30T04:51:08.712Z,87.182617
2019-01-30T04:56:31.360Z,87.182617
2019-01-30T05:01:54.074Z,86.199951
2019-01-30T05:07:16.809Z,85.681152
2019-01-30T05:12:39.690Z,86.517334
2019-01-30T05:18:02.363Z,86.517334
2019-01-30T05:23:25.147Z,86.657715
2019-01-30T05:28:48.196Z,86.309814
2019-01-30T05:34:10.967Z,86.553955
2019-01-30T05:39:33.748Z,86.242676
2019-01-30T05:44:56.397Z,85.406494
2019-01-30T05:50:19.169Z,85.26001
2019-01-30T05:55:52.496Z,84.423828
2019-01-30T06:01:15.168Z,84.674072
2019-01-30T06:06:38.011Z,84.985352
2019-01-30T06:12:10.247Z,84.564209
2019-01-30T06:17:43.199Z,84.460449
2019-01-30T06:23:43.721Z,85.339355
2019-01-30T06:29:15.731Z,85.235596
2019-01-30T06:34:38.593Z,84.985352
2019-01-30T06:40:01.321Z,84.460449
2019-01-30T06:45:33.500Z,84.04541
2019-01-30T06:50:56.235Z,83.728027
2019-01-30T06:56:27.808Z,83.416748
2019-01-30T07:02:00.002Z,82.684326
2019-01-30T07:07:36.088Z,82.330322
2019-01-30T07:13:07.796Z,81.286621
2019-01-30T07:18:30.805Z,81.494141
2019-01-30T07:23:54.149Z,82.122803
2019-01-30T07:29:29.153Z,83.099365
2019-01-30T07:34:51.864Z,82.788086
2019-01-30T07:40:14.575Z,83.209229
2019-01-30T07:45:46.787Z,81.951904
2019-01-30T07:51:18.925Z,82.226562
2019-01-30T07:56:51.025Z,82.751465
2019-01-30T08:02:23.324Z,82.019043
2019-01-30T08:07:56.328Z,80.657959
2019-01-30T08:13:29.008Z,82.122803
2019-01-30T08:18:51.691Z,82.958984
2019-01-30T08:24:25.220Z,81.70166
2019-01-30T08:29:48.200Z,79.577637
2019-01-30T08:35:10.690Z,79.541016
2019-01-30T08:40:41.706Z,80.584717
2019-01-30T08:46:13.312Z,79.956055
2019-01-30T08:51:36.408Z,79.541016
2019-01-30T08:57:09.991Z,79.504395
2019-01-30T09:02:32.778Z,77.862549
2019-01-30T09:07:56.204Z,76.818848
2019-01-30T09:13:19.130Z,76.715088
2019-01-30T09:18:41.829Z,75.744629
2019-01-30T09:24:04.639Z,73.864746
2019-01-30T09:29:27.349Z,76.123047
2019-01-30T09:34:50.858Z,74.353027
2019-01-30T09:40:13.486Z,73.590088
2019-01-30T09:45:36.327Z,73.345947
2019-01-30T09:50:59.006Z,73.138428
2019-01-30T09:56:21.833Z,73.101807
2019-01-30T10:01:44.721Z,72.198486
2019-01-30T10:07:07.427Z,74.597168
2019-01-30T10:12:30.418Z,72.509766
2019-01-30T10:17:53.322Z,73.797607
2019-01-30T10:23:15.920Z,72.961426
2019-01-30T10:28:49.326Z,72.753906
2019-01-30T10:34:12.864Z,73.138428
2019-01-30T10:39:35.778Z,73.345947
2019-01-30T10:44:58.581Z,73.31543
2019-01-30T10:50:21.385Z,72.375488
2019-01-30T10:55:45.095Z,72.198486
2019-01-30T11:01:09.169Z,74.389648
2019-01-30T11:06:32.110Z,72.930908
2019-01-30T11:11:55.632Z,72.064209
2019-01-30T11:17:19.292Z,74.493408
2019-01-30T11:22:42.896Z,72.406006
2019-01-30T11:28:06.709Z,73.693848
2019-01-30T11:33:31.999Z,75.115967
2019-01-30T11:38:55.268Z,72.235107
2019-01-30T11:44:17.988Z,73.901367
2019-01-30T11:49:41.516Z,75.500488
2019-01-30T11:55:06.269Z,79.327393
2019-01-30T12:00:29.598Z,81.933594
2019-01-30T12:05:52.531Z,84.686279
2019-01-30T12:11:15.523Z,87.860107
2019-01-30T12:16:40.463Z,89.257812
2019-01-30T12:22:06.875Z,91.247559
2019-01-30T12:27:29.590Z,91.870117
2019-01-30T12:32:53.603Z,93.023682
2019-01-30T12:38:16.521Z,93.54248
2019-01-30T12:43:40.999Z,93.859863
2019-01-30T12:49:03.707Z,92.980957
2019-01-30T12:54:26.589Z,91.723633
2019-01-30T12:59:49.707Z,91.412354
2019-01-30T13:05:13.154Z,91.308594
2019-01-30T13:10:35.857Z,90.997314
2019-01-30T13:15:59.726Z,91.870117
2019-01-30T13:21:34.672Z,91.937256
2019-01-30T13:27:06.776Z,91.308594
2019-01-30T13:32:39.318Z,91.516113
2019-01-30T13:38:02.393Z,91.870117
2019-01-30T13:43:34.229Z,91.662598
2019-01-30T13:48:57.130Z,91.455078
2019-01-30T13:54:19.798Z,91.662598
2019-01-30T13:59:42.814Z,92.602539
2019-01-30T14:05:05.576Z,91.766357
2019-01-30T14:10:29.301Z,92.29126
2019-01-30T14:15:52.120Z,92.08374
2019-01-30T14:21:14.877Z,91.558838
2019-01-30T14:26:37.629Z,91.870117
2019-01-30T14:32:00.348Z,92.08374
2019-01-30T14:37:24.227Z,92.437744
2019-01-30T14:42:47.158Z,92.541504
2019-01-30T14:48:09.968Z,93.066406
2019-01-30T14:53:33.149Z,93.066406
2019-01-30T14:58:55.909Z,93.377686
2019-01-30T15:04:18.626Z,93.481445
2019-01-30T15:09:42.327Z,94.006348
2019-01-30T15:15:05.107Z,94.317627
2019-01-30T15:20:27.876Z,94.110107
2019-01-30T15:25:50.574Z,94.73877
2019-01-30T15:31:13.728Z,95.367432
2019-01-30T15:36:36.474Z,95.367432
2019-01-30T15:41:59.189Z,95.88623
2019-01-30T15:47:22.412Z,95.928955
2019-01-30T15:52:45.192Z,96.038818
2019-01-30T15:58:08.079Z,96.453857
2019-01-30T16:03:30.833Z,97.08252
2019-01-30T16:08:53.647Z,96.97876
2019-01-30T16:14:16.623Z,97.607422
2019-01-30T16:19:39.650Z,97.814941
2019-01-30T16:25:08.901Z,98.236084
2019-01-30T16:30:25.214Z,98.443604
2019-01-30T16:35:55.555Z,99.072266
2019-01-30T16:41:11.735Z,99.383545
2019-01-30T16:46:35.542Z,99.700928
2019-01-30T16:51:58.392Z,99.993896
2019-01-30T16:57:21.151Z,99.993896
2019-01-30T17:02:44.207Z,99.993896
2019-01-30T17:08:06.914Z,99.993896
2019-01-30T17:13:29.830Z,99.993896
2019-01-30T17:19:01.360Z,99.993896
2019-01-30T17:24:24.266Z,99.993896
2019-01-30T17:29:47.189Z,99.993896
2019-01-30T17:35:11.344Z,99.993896
2019-01-30T17:40:34.137Z,99.993896
2019-01-30T17:45:57.078Z,99.993896
2019-01-30T17:51:20.507Z,99.993896
2019-01-30T17:56:43.377Z,99.993896
2019-01-30T18:02:06.495Z,99.993896
2019-01-30T18:07:29.835Z,99.993896
2019-01-30T18:12:52.856Z,99.993896
2019-01-30T18:18:15.764Z,99.993896
2019-01-30T18:23:40.474Z,99.993896
2019-01-30T18:29:04.008Z,99.993896
2019-01-30T18:34:27.085Z,99.993896
2019-01-30T18:39:50.019Z,99.993896
2019-01-30T18:45:12.694Z,99.993896
2019-01-30T18:50:35.487Z,99.993896
2019-01-30T18:55:58.361Z,99.993896
2019-01-30T19:01:22.135Z,99.993896
2019-01-30T19:06:51.882Z,99.993896
2019-01-30T19:12:08.623Z,99.993896
2019-01-30T19:17:32.640Z,99.993896
2019-01-30T19:22:55.455Z,99.993896
2019-01-30T19:28:19.074Z,99.993896
2019-01-30T19:33:41.943Z,99.993896
2019-01-30T19:39:04.959Z,99.993896
2019-01-30T19:44:27.788Z,99.993896
2019-01-30T19:50:00.686Z,99.993896
2019-01-30T19:55:34.168Z,99.993896
2019-01-30T20:00:57.517Z,99.993896
2019-01-30T20:06:20.776Z,99.993896
2019-01-30T20:11:55.472Z,99.993896
2019-01-30T20:17:18.913Z,99.993896
2019-01-30T20:22:52.185Z,99.993896
2019-01-30T20:28:24.142Z,99.993896
2019-01-30T20:33:56.352Z,99.993896
2019-01-30T20:39:48.754Z,99.993896
2019-01-30T20:45:32.966Z,99.993896
2019-01-30T20:50:46.255Z,99.993896
2019-01-30T20:56:18.423Z,99.993896
2019-01-30T21:01:41.423Z,99.993896
2019-01-30T21:07:04.532Z,99.993896
2019-01-30T21:12:28.781Z,99.993896
2019-01-30T21:17:52.384Z,99.993896
2019-01-30T21:23:15.411Z,99.993896
2019-01-30T21:28:38.529Z,99.993896
2019-01-30T21:34:01.662Z,99.993896
2019-01-30T21:39:24.786Z,99.993896
2019-01-30T21:44:47.868Z,99.993896
2019-01-30T21:50:21.311Z,99.993896
2019-01-30T21:55:54.780Z,99.993896
2019-01-30T22:01:27.637Z,99.993896
2019-01-30T22:07:18.291Z,99.993896
2019-01-30T22:12:41.195Z,99.993896
2019-01-30T22:18:04.029Z,99.993896
2019-01-30T22:23:26.952Z,99.993896
2019-01-30T22:28:50.195Z,99.993896
2019-01-30T22:34:23.166Z,99.993896
2019-01-30T22:39:56.914Z,99.993896
2019-01-30T22:45:29.711Z,99.993896
2019-01-30T22:50:52.572Z,99.993896
2019-01-30T22:56:16.134Z,99.993896
2019-01-30T23:01:39.134Z,99.993896
2019-01-30T23:07:01.869Z,99.993896
2019-01-30T23:12:35.018Z,99.993896
2019-01-30T23:17:58.317Z,99.993896
2019-01-30T23:23:30.434Z,99.993896
2019-01-30T23:28:54.757Z,99.993896
2019-01-30T23:34:29.585Z,99.993896
2019-01-30T23:39:52.370Z,99.993896
2019-01-30T23:45:15.071Z,99.993896
2019-01-30T23:50:37.962Z,99.993896
2019-01-30T23:56:10.553Z,99.993896
